sensor_id;sensor_type;location;lat;lon;timestamp;temperature;humidity
19654;DHT22;9975;48.046;7.804;2023-05-07T01:56:35;11.70;99.90
19654;DHT22;9975;48.046;7.804;2023-05-07T01:59:01;11.70;99.90
19654;DHT22;9975;48.046;7.804;2023-05-07T02:01:27;11.70;99.90
19654;DHT22;9975;48.046;7.804;2023-05-07T02:03:53;11.70;99.90
19654;DHT22;9975;48.046;7.804;2023-05-07T02:06:19;11.80;99.90
19654;DHT22;9975;48.046;7.804;2023-05-07T02:08:45;11.80;99.90
19654;DHT22;9975;48.046;7.804;2023-05-07T02:11:11;11.70;99.90
19654;DHT22;9975;48.046;7.804;2023-05-07T02:13:37;11.70;99.90
19654;DHT22;9975;48.046;7.804;2023-05-07T02:16:03;11.70;99.90
19654;DHT22;9975;48.046;7.804;2023-05-07T02:18:28;11.70;99.90
19654;DHT22;9975;48.046;7.804;2023-05-07T02:20:54;11.60;99.90
19654;DHT22;9975;48.046;7.804;2023-05-07T02:23:20;11.70;99.90
19654;DHT22;9975;48.046;7.804;2023-05-07T02:25:45;11.60;99.90
19654;DHT22;9975;48.046;7.804;2023-05-07T02:28:11;11.60;99.90
19654;DHT22;9975;48.046;7.804;2023-05-07T02:30:38;11.60;99.90
19654;DHT22;9975;48.046;7.804;2023-05-07T02:33:04;11.60;99.90
19654;DHT22;9975;48.046;7.804;2023-05-07T02:35:33;11.50;99.90
19654;DHT22;9975;48.046;7.804;2023-05-07T02:37:59;11.40;99.90
19654;DHT22;9975;48.046;7.804;2023-05-07T02:40:25;11.30;99.90
19654;DHT22;9975;48.046;7.804;2023-05-07T02:42:50;11.30;99.90
19654;DHT22;9975;48.046;7.804;2023-05-07T02:45:16;11.30;99.90
19654;DHT22;9975;48.046;7.804;2023-05-07T02:47:41;11.30;99.90
19654;DHT22;9975;48.046;7.804;2023-05-07T02:50:07;11.30;99.90
19654;DHT22;9975;48.046;7.804;2023-05-07T02:52:33;11.30;99.90
19654;DHT22;9975;48.046;7.804;2023-05-07T02:54:58;11.30;99.90
19654;DHT22;9975;48.046;7.804;2023-05-07T02:57:24;11.20;99.90
19654;DHT22;9975;48.046;7.804;2023-05-07T02:59:50;11.20;99.90
19654;DHT22;9975;48.046;7.804;2023-05-07T03:02:16;11.00;99.90
19654;DHT22;9975;48.046;7.804;2023-05-07T03:04:41;10.90;99.90
19654;DHT22;9975;48.046;7.804;2023-05-07T03:07:07;10.90;99.90
19654;DHT22;9975;48.046;7.804;2023-05-07T03:09:33;10.90;99.90
19654;DHT22;9975;48.046;7.804;2023-05-07T03:11:58;10.90;99.90
19654;DHT22;9975;48.046;7.804;2023-05-07T03:14:24;10.90;99.90
19654;DHT22;9975;48.046;7.804;2023-05-07T03:16:50;10.80;99.90
19654;DHT22;9975;48.046;7.804;2023-05-07T03:19:15;10.80;99.90
19654;DHT22;9975;48.046;7.804;2023-05-07T03:21:41;10.90;99.90
19654;DHT22;9975;48.046;7.804;2023-05-07T03:24:07;10.90;99.90
19654;DHT22;9975;48.046;7.804;2023-05-07T03:26:33;10.80;99.90
19654;DHT22;9975;48.046;7.804;2023-05-07T03:28:58;10.90;99.90
19654;DHT22;9975;48.046;7.804;2023-05-07T03:31:24;10.80;99.90
19654;DHT22;9975;48.046;7.804;2023-05-07T03:33:58;10.70;99.90
19654;DHT22;9975;48.046;7.804;2023-05-07T03:36:24;10.70;99.90
19654;DHT22;9975;48.046;7.804;2023-05-07T03:38:52;10.70;99.90
19654;DHT22;9975;48.046;7.804;2023-05-07T03:41:17;10.70;99.90
19654;DHT22;9975;48.046;7.804;2023-05-07T03:43:43;10.70;99.90
19654;DHT22;9975;48.046;7.804;2023-05-07T03:46:08;10.70;99.90
19654;DHT22;9975;48.046;7.804;2023-05-07T03:48:34;10.70;99.90
19654;DHT22;9975;48.046;7.804;2023-05-07T03:51:00;10.60;99.90
19654;DHT22;9975;48.046;7.804;2023-05-07T03:53:26;10.70;99.90
19654;DHT22;9975;48.046;7.804;2023-05-07T03:55:51;10.60;99.90
19654;DHT22;9975;48.046;7.804;2023-05-07T03:58:17;10.60;99.90
19654;DHT22;9975;48.046;7.804;2023-05-07T04:00:43;10.60;99.90
19654;DHT22;9975;48.046;7.804;2023-05-07T04:03:08;10.60;99.90
19654;DHT22;9975;48.046;7.804;2023-05-07T04:05:34;10.50;99.90
19654;DHT22;9975;48.046;7.804;2023-05-07T04:08:00;10.50;99.90
19654;DHT22;9975;48.046;7.804;2023-05-07T04:10:26;10.40;99.90
19654;DHT22;9975;48.046;7.804;2023-05-07T04:12:51;10.40;99.90
19654;DHT22;9975;48.046;7.804;2023-05-07T04:15:17;10.30;99.90
19654;DHT22;9975;48.046;7.804;2023-05-07T04:17:43;10.30;99.90
19654;DHT22;9975;48.046;7.804;2023-05-07T04:20:10;10.30;99.90
19654;DHT22;9975;48.046;7.804;2023-05-07T04:22:36;10.30;99.90
19654;DHT22;9975;48.046;7.804;2023-05-07T04:25:02;10.30;99.90
19654;DHT22;9975;48.046;7.804;2023-05-07T04:27:28;10.30;99.90
19654;DHT22;9975;48.046;7.804;2023-05-07T04:29:54;10.30;99.90
19654;DHT22;9975;48.046;7.804;2023-05-07T04:32:23;10.40;99.90
19654;DHT22;9975;48.046;7.804;2023-05-07T04:34:50;10.30;99.90
19654;DHT22;9975;48.046;7.804;2023-05-07T04:37:16;10.30;99.90
19654;DHT22;9975;48.046;7.804;2023-05-07T04:39:41;10.30;99.90
19654;DHT22;9975;48.046;7.804;2023-05-07T04:42:07;10.30;99.90
19654;DHT22;9975;48.046;7.804;2023-05-07T04:44:34;10.30;99.90
19654;DHT22;9975;48.046;7.804;2023-05-07T04:47:00;10.40;99.90
19654;DHT22;9975;48.046;7.804;2023-05-07T04:49:26;10.40;99.90
19654;DHT22;9975;48.046;7.804;2023-05-07T04:51:52;10.40;99.90
19654;DHT22;9975;48.046;7.804;2023-05-07T04:54:17;10.50;99.90
19654;DHT22;9975;48.046;7.804;2023-05-07T04:56:43;10.60;99.90
19654;DHT22;9975;48.046;7.804;2023-05-07T04:59:09;10.60;99.90
19654;DHT22;9975;48.046;7.804;2023-05-07T05:01:34;10.70;99.90
19654;DHT22;9975;48.046;7.804;2023-05-07T05:04:00;10.90;99.90
19654;DHT22;9975;48.046;7.804;2023-05-07T05:06:26;10.90;99.90
19654;DHT22;9975;48.046;7.804;2023-05-07T05:08:51;11.00;99.90
19654;DHT22;9975;48.046;7.804;2023-05-07T05:11:17;11.00;99.90
19654;DHT22;9975;48.046;7.804;2023-05-07T05:13:42;11.10;99.90
19654;DHT22;9975;48.046;7.804;2023-05-07T05:16:08;11.20;99.90
19654;DHT22;9975;48.046;7.804;2023-05-07T05:18:34;11.20;99.90
19654;DHT22;9975;48.046;7.804;2023-05-07T05:21:00;11.30;99.90
19654;DHT22;9975;48.046;7.804;2023-05-07T05:23:25;11.30;99.90
19654;DHT22;9975;48.046;7.804;2023-05-07T05:25:56;11.40;99.90
19654;DHT22;9975;48.046;7.804;2023-05-07T05:28:22;11.50;99.90
19654;DHT22;9975;48.046;7.804;2023-05-07T05:30:48;11.60;99.90
19654;DHT22;9975;48.046;7.804;2023-05-07T05:33:13;11.70;99.90
19654;DHT22;9975;48.046;7.804;2023-05-07T05:35:39;11.70;99.90
19654;DHT22;9975;48.046;7.804;2023-05-07T05:38:05;11.80;99.90
19654;DHT22;9975;48.046;7.804;2023-05-07T05:40:30;11.90;99.90
19654;DHT22;9975;48.046;7.804;2023-05-07T05:42:56;12.00;99.90
19654;DHT22;9975;48.046;7.804;2023-05-07T05:45:21;12.00;99.90
19654;DHT22;9975;48.046;7.804;2023-05-07T05:47:47;12.10;99.90
19654;DHT22;9975;48.046;7.804;2023-05-07T05:50:13;12.10;99.90
19654;DHT22;9975;48.046;7.804;2023-05-07T05:52:38;12.20;99.90
19654;DHT22;9975;48.046;7.804;2023-05-07T05:55:04;12.20;99.90
19654;DHT22;9975;48.046;7.804;2023-05-07T05:57:30;12.30;99.90
19654;DHT22;9975;48.046;7.804;2023-05-07T05:59:56;12.40;99.90
19654;DHT22;9975;48.046;7.804;2023-05-07T06:02:22;12.50;99.90
19654;DHT22;9975;48.046;7.804;2023-05-07T06:04:47;12.70;99.90
19654;DHT22;9975;48.046;7.804;2023-05-07T06:07:13;12.80;99.90
19654;DHT22;9975;48.046;7.804;2023-05-07T06:09:38;13.00;99.90
19654;DHT22;9975;48.046;7.804;2023-05-07T06:12:04;13.20;99.90
19654;DHT22;9975;48.046;7.804;2023-05-07T06:14:30;13.30;99.90
19654;DHT22;9975;48.046;7.804;2023-05-07T06:16:56;13.50;99.90
19654;DHT22;9975;48.046;7.804;2023-05-07T06:19:21;13.60;99.90
19654;DHT22;9975;48.046;7.804;2023-05-07T06:21:49;13.70;99.90
19654;DHT22;9975;48.046;7.804;2023-05-07T06:24:15;13.80;99.90
19654;DHT22;9975;48.046;7.804;2023-05-07T06:26:41;13.90;99.90
19654;DHT22;9975;48.046;7.804;2023-05-07T06:29:06;13.90;99.90
19654;DHT22;9975;48.046;7.804;2023-05-07T06:31:32;14.00;99.90
19654;DHT22;9975;48.046;7.804;2023-05-07T06:33:58;14.00;99.90
19654;DHT22;9975;48.046;7.804;2023-05-07T06:36:24;14.00;99.90
19654;DHT22;9975;48.046;7.804;2023-05-07T06:38:50;14.10;99.90
19654;DHT22;9975;48.046;7.804;2023-05-07T06:41:15;14.10;99.90
19654;DHT22;9975;48.046;7.804;2023-05-07T06:43:41;14.20;99.90
19654;DHT22;9975;48.046;7.804;2023-05-07T06:46:06;14.30;99.90
19654;DHT22;9975;48.046;7.804;2023-05-07T06:48:32;14.40;99.90
19654;DHT22;9975;48.046;7.804;2023-05-07T06:50:57;14.50;99.90
19654;DHT22;9975;48.046;7.804;2023-05-07T06:53:24;14.50;99.90
19654;DHT22;9975;48.046;7.804;2023-05-07T06:55:49;14.70;99.90
19654;DHT22;9975;48.046;7.804;2023-05-07T06:58:15;14.80;99.90
19654;DHT22;9975;48.046;7.804;2023-05-07T07:00:41;14.90;99.90
19654;DHT22;9975;48.046;7.804;2023-05-07T07:03:07;15.00;99.90
19654;DHT22;9975;48.046;7.804;2023-05-07T07:05:32;15.20;99.90
19654;DHT22;9975;48.046;7.804;2023-05-07T07:07:58;15.30;99.90
19654;DHT22;9975;48.046;7.804;2023-05-07T07:10:24;15.40;99.90
19654;DHT22;9975;48.046;7.804;2023-05-07T07:12:49;15.50;99.90
19654;DHT22;9975;48.046;7.804;2023-05-07T07:15:15;15.70;99.90
19654;DHT22;9975;48.046;7.804;2023-05-07T07:17:41;15.80;99.90
19654;DHT22;9975;48.046;7.804;2023-05-07T07:20:07;15.90;99.90
19654;DHT22;9975;48.046;7.804;2023-05-07T07:22:33;16.10;99.90
19654;DHT22;9975;48.046;7.804;2023-05-07T07:24:59;16.40;99.90
19654;DHT22;9975;48.046;7.804;2023-05-07T07:27:25;16.40;99.90
19654;DHT22;9975;48.046;7.804;2023-05-07T07:29:50;16.60;99.90
19654;DHT22;9975;48.046;7.804;2023-05-07T07:32:16;16.70;99.90
19654;DHT22;9975;48.046;7.804;2023-05-07T07:34:42;16.80;99.90
19654;DHT22;9975;48.046;7.804;2023-05-07T07:37:07;17.00;99.90
19654;DHT22;9975;48.046;7.804;2023-05-07T07:39:33;17.20;99.90
19654;DHT22;9975;48.046;7.804;2023-05-07T07:41:59;17.30;99.90
19654;DHT22;9975;48.046;7.804;2023-05-07T07:44:25;17.40;99.90
19654;DHT22;9975;48.046;7.804;2023-05-07T07:46:54;17.50;99.90
19654;DHT22;9975;48.046;7.804;2023-05-07T07:49:20;17.70;99.90
19654;DHT22;9975;48.046;7.804;2023-05-07T07:51:45;17.90;99.90
19654;DHT22;9975;48.046;7.804;2023-05-07T07:54:11;18.10;99.90
19654;DHT22;9975;48.046;7.804;2023-05-07T07:56:37;18.30;99.90
19654;DHT22;9975;48.046;7.804;2023-05-07T07:59:03;18.50;99.90
19654;DHT22;9975;48.046;7.804;2023-05-07T08:01:30;18.60;99.90
19654;DHT22;9975;48.046;7.804;2023-05-07T08:03:56;18.70;99.90
19654;DHT22;9975;48.046;7.804;2023-05-07T08:06:24;18.90;99.90
19654;DHT22;9975;48.046;7.804;2023-05-07T08:08:51;19.10;99.90
19654;DHT22;9975;48.046;7.804;2023-05-07T08:11:17;19.10;99.90
19654;DHT22;9975;48.046;7.804;2023-05-07T08:13:42;19.20;99.90
19654;DHT22;9975;48.046;7.804;2023-05-07T08:16:08;19.30;99.90
19654;DHT22;9975;48.046;7.804;2023-05-07T08:18:34;19.50;99.90
19654;DHT22;9975;48.046;7.804;2023-05-07T08:21:01;19.40;99.90
19654;DHT22;9975;48.046;7.804;2023-05-07T08:23:26;19.60;99.90
19654;DHT22;9975;48.046;7.804;2023-05-07T08:25:52;19.60;99.90
19654;DHT22;9975;48.046;7.804;2023-05-07T08:28:18;19.70;99.90
19654;DHT22;9975;48.046;7.804;2023-05-07T08:30:45;19.80;99.90
19654;DHT22;9975;48.046;7.804;2023-05-07T08:33:10;19.90;99.70
19654;DHT22;9975;48.046;7.804;2023-05-07T08:35:36;19.90;99.90
19654;DHT22;9975;48.046;7.804;2023-05-07T08:38:02;19.90;99.80
19654;DHT22;9975;48.046;7.804;2023-05-07T08:40:28;19.80;99.50
19654;DHT22;9975;48.046;7.804;2023-05-07T08:42:56;19.90;98.90
19654;DHT22;9975;48.046;7.804;2023-05-07T08:45:23;20.00;99.10
19654;DHT22;9975;48.046;7.804;2023-05-07T08:47:52;19.90;98.60
19654;DHT22;9975;48.046;7.804;2023-05-07T08:50:20;20.00;97.90
19654;DHT22;9975;48.046;7.804;2023-05-07T08:52:46;20.30;97.60
19654;DHT22;9975;48.046;7.804;2023-05-07T08:55:12;20.50;97.20
19654;DHT22;9975;48.046;7.804;2023-05-07T08:57:38;20.40;97.50
19654;DHT22;9975;48.046;7.804;2023-05-07T09:00:04;20.50;97.50
19654;DHT22;9975;48.046;7.804;2023-05-07T09:02:34;20.60;97.90
19654;DHT22;9975;48.046;7.804;2023-05-07T09:05:00;20.80;97.90
19654;DHT22;9975;48.046;7.804;2023-05-07T09:07:26;21.00;96.60
19654;DHT22;9975;48.046;7.804;2023-05-07T09:09:52;21.10;95.80
19654;DHT22;9975;48.046;7.804;2023-05-07T09:12:19;21.20;96.20
19654;DHT22;9975;48.046;7.804;2023-05-07T09:14:45;21.30;96.00
19654;DHT22;9975;48.046;7.804;2023-05-07T09:17:11;21.50;95.70
19654;DHT22;9975;48.046;7.804;2023-05-07T09:19:37;21.70;95.70
19654;DHT22;9975;48.046;7.804;2023-05-07T09:22:04;21.80;94.80
19654;DHT22;9975;48.046;7.804;2023-05-07T09:24:30;22.00;94.30
19654;DHT22;9975;48.046;7.804;2023-05-07T09:27:00;21.90;94.50
19654;DHT22;9975;48.046;7.804;2023-05-07T09:29:27;22.10;93.50
19654;DHT22;9975;48.046;7.804;2023-05-07T09:31:54;22.30;92.50
19654;DHT22;9975;48.046;7.804;2023-05-07T09:34:20;22.30;92.10
19654;DHT22;9975;48.046;7.804;2023-05-07T09:36:46;22.20;90.90
19654;DHT22;9975;48.046;7.804;2023-05-07T09:39:13;22.20;90.90
19654;DHT22;9975;48.046;7.804;2023-05-07T09:41:48;21.90;91.60
19654;DHT22;9975;48.046;7.804;2023-05-07T09:44:15;22.00;91.30
19654;DHT22;9975;48.046;7.804;2023-05-07T09:46:43;22.10;90.80
19654;DHT22;9975;48.046;7.804;2023-05-07T09:49:20;21.90;91.20
19654;DHT22;9975;48.046;7.804;2023-05-07T09:51:49;22.00;91.40
19654;DHT22;9975;48.046;7.804;2023-05-07T09:54:15;22.30;92.00
19654;DHT22;9975;48.046;7.804;2023-05-07T09:56:43;22.50;91.30
19654;DHT22;9975;48.046;7.804;2023-05-07T09:59:12;22.10;90.20
19654;DHT22;9975;48.046;7.804;2023-05-07T10:01:38;21.80;90.20
19654;DHT22;9975;48.046;7.804;2023-05-07T10:04:05;21.60;90.40
19654;DHT22;9975;48.046;7.804;2023-05-07T10:06:30;21.30;91.30
19654;DHT22;9975;48.046;7.804;2023-05-07T10:08:57;21.10;92.70
19654;DHT22;9975;48.046;7.804;2023-05-07T10:11:24;21.30;93.40
19654;DHT22;9975;48.046;7.804;2023-05-07T10:13:50;21.20;93.10
19654;DHT22;9975;48.046;7.804;2023-05-07T10:16:18;20.60;93.30
19654;DHT22;9975;48.046;7.804;2023-05-07T10:18:44;20.50;93.70
19654;DHT22;9975;48.046;7.804;2023-05-07T10:21:17;20.10;94.00
19654;DHT22;9975;48.046;7.804;2023-05-07T10:24:09;20.00;94.20
19654;DHT22;9975;48.046;7.804;2023-05-07T10:26:41;19.90;94.60
19654;DHT22;9975;48.046;7.804;2023-05-07T10:29:14;19.70;95.50
19654;DHT22;9975;48.046;7.804;2023-05-07T10:34:12;19.40;97.10
19654;DHT22;9975;48.046;7.804;2023-05-07T10:36:39;19.10;98.10
19654;DHT22;9975;48.046;7.804;2023-05-07T10:39:05;18.80;99.00
19654;DHT22;9975;48.046;7.804;2023-05-07T10:41:31;18.70;99.90
19654;DHT22;9975;48.046;7.804;2023-05-07T10:43:57;18.70;99.90
19654;DHT22;9975;48.046;7.804;2023-05-07T10:46:26;18.60;99.90
19654;DHT22;9975;48.046;7.804;2023-05-07T10:49:12;18.50;99.90
19654;DHT22;9975;48.046;7.804;2023-05-07T10:51:38;18.50;99.90
19654;DHT22;9975;48.046;7.804;2023-05-07T10:56:37;18.70;99.90
19654;DHT22;9975;48.046;7.804;2023-05-07T11:01:56;18.40;99.90
19654;DHT22;9975;48.046;7.804;2023-05-07T11:04:23;18.30;99.90
19654;DHT22;9975;48.046;7.804;2023-05-07T11:15:06;18.40;99.90
19654;DHT22;9975;48.046;7.804;2023-05-07T11:17:33;18.50;99.90
19654;DHT22;9975;48.046;7.804;2023-05-07T11:20:01;18.60;99.90
19654;DHT22;9975;48.046;7.804;2023-05-07T11:25:00;18.60;99.90
19654;DHT22;9975;48.046;7.804;2023-05-07T11:27:26;18.70;99.90
19654;DHT22;9975;48.046;7.804;2023-05-07T11:29:52;18.90;99.90
19654;DHT22;9975;48.046;7.804;2023-05-07T11:32:29;19.10;99.90
19654;DHT22;9975;48.046;7.804;2023-05-07T11:34:55;19.30;99.90
19654;DHT22;9975;48.046;7.804;2023-05-07T11:37:22;19.40;99.90
19654;DHT22;9975;48.046;7.804;2023-05-07T11:39:48;19.40;99.90
19654;DHT22;9975;48.046;7.804;2023-05-07T11:42:31;19.60;99.90
19654;DHT22;9975;48.046;7.804;2023-05-07T11:44:57;19.50;99.90
19654;DHT22;9975;48.046;7.804;2023-05-07T11:47:24;19.50;99.90
19654;DHT22;9975;48.046;7.804;2023-05-07T11:49:54;19.60;99.90
19654;DHT22;9975;48.046;7.804;2023-05-07T11:52:21;19.50;99.90
19654;DHT22;9975;48.046;7.804;2023-05-07T11:54:51;19.60;99.90
19654;DHT22;9975;48.046;7.804;2023-05-07T11:57:16;19.80;99.90
19654;DHT22;9975;48.046;7.804;2023-05-07T11:59:42;19.90;99.90
19654;DHT22;9975;48.046;7.804;2023-05-07T12:02:14;19.90;99.90
19654;DHT22;9975;48.046;7.804;2023-05-07T12:04:39;19.90;99.90
19654;DHT22;9975;48.046;7.804;2023-05-07T12:07:05;19.90;99.90
19654;DHT22;9975;48.046;7.804;2023-05-07T12:09:32;20.00;99.90
19654;DHT22;9975;48.046;7.804;2023-05-07T12:12:03;20.30;99.90
19654;DHT22;9975;48.046;7.804;2023-05-07T12:14:29;20.20;99.90
19654;DHT22;9975;48.046;7.804;2023-05-07T12:16:56;20.20;99.90
19654;DHT22;9975;48.046;7.804;2023-05-07T12:19:22;20.30;99.90
19654;DHT22;9975;48.046;7.804;2023-05-07T12:21:48;20.40;99.90
19654;DHT22;9975;48.046;7.804;2023-05-07T12:24:16;20.70;99.90
19654;DHT22;9975;48.046;7.804;2023-05-07T12:26:43;20.80;99.90
19654;DHT22;9975;48.046;7.804;2023-05-07T12:29:09;21.00;99.90
19654;DHT22;9975;48.046;7.804;2023-05-07T12:31:34;21.40;99.90
19654;DHT22;9975;48.046;7.804;2023-05-07T12:34:00;21.50;99.90
19654;DHT22;9975;48.046;7.804;2023-05-07T12:36:25;21.70;99.90
19654;DHT22;9975;48.046;7.804;2023-05-07T12:39:00;21.90;99.90
19654;DHT22;9975;48.046;7.804;2023-05-07T12:41:26;21.90;99.90
19654;DHT22;9975;48.046;7.804;2023-05-07T12:43:56;21.80;99.90
19654;DHT22;9975;48.046;7.804;2023-05-07T12:46:23;21.60;99.90
19654;DHT22;9975;48.046;7.804;2023-05-07T12:48:49;21.70;99.90
19654;DHT22;9975;48.046;7.804;2023-05-07T12:51:15;21.50;99.90
19654;DHT22;9975;48.046;7.804;2023-05-07T12:53:41;21.40;99.90
19654;DHT22;9975;48.046;7.804;2023-05-07T12:56:10;21.30;99.90
19654;DHT22;9975;48.046;7.804;2023-05-07T12:58:36;21.30;99.90
19654;DHT22;9975;48.046;7.804;2023-05-07T13:01:06;21.10;99.90
19654;DHT22;9975;48.046;7.804;2023-05-07T13:03:33;21.10;99.90
19654;DHT22;9975;48.046;7.804;2023-05-07T13:06:04;21.00;99.90
19654;DHT22;9975;48.046;7.804;2023-05-07T13:10:57;21.00;99.90
19654;DHT22;9975;48.046;7.804;2023-05-07T13:13:23;21.30;99.90
19654;DHT22;9975;48.046;7.804;2023-05-07T13:15:48;21.20;99.90
19654;DHT22;9975;48.046;7.804;2023-05-07T13:18:14;21.00;99.90
19654;DHT22;9975;48.046;7.804;2023-05-07T13:20:40;20.80;99.90
19654;DHT22;9975;48.046;7.804;2023-05-07T13:23:06;20.90;99.90
19654;DHT22;9975;48.046;7.804;2023-05-07T13:25:31;21.00;99.90
19654;DHT22;9975;48.046;7.804;2023-05-07T13:27:57;21.00;99.90
19654;DHT22;9975;48.046;7.804;2023-05-07T13:30:23;20.60;99.90
19654;DHT22;9975;48.046;7.804;2023-05-07T13:32:48;20.70;99.90
19654;DHT22;9975;48.046;7.804;2023-05-07T13:35:16;20.60;99.90
19654;DHT22;9975;48.046;7.804;2023-05-07T13:37:41;20.80;99.90
19654;DHT22;9975;48.046;7.804;2023-05-07T13:40:07;20.70;99.90
19654;DHT22;9975;48.046;7.804;2023-05-07T13:42:33;20.70;99.90
19654;DHT22;9975;48.046;7.804;2023-05-07T13:44:59;20.70;99.90
19654;DHT22;9975;48.046;7.804;2023-05-07T13:47:24;20.70;99.90
19654;DHT22;9975;48.046;7.804;2023-05-07T13:49:50;20.60;99.90
19654;DHT22;9975;48.046;7.804;2023-05-07T13:52:16;20.80;99.90
19654;DHT22;9975;48.046;7.804;2023-05-07T13:54:42;20.80;99.90
19654;DHT22;9975;48.046;7.804;2023-05-07T13:57:08;20.90;99.90
19654;DHT22;9975;48.046;7.804;2023-05-07T13:59:33;21.00;99.90
19654;DHT22;9975;48.046;7.804;2023-05-07T14:01:59;21.10;99.90
19654;DHT22;9975;48.046;7.804;2023-05-07T14:04:25;21.00;99.70
19654;DHT22;9975;48.046;7.804;2023-05-07T14:06:51;20.80;96.60
19654;DHT22;9975;48.046;7.804;2023-05-07T14:09:16;20.80;97.40
19654;DHT22;9975;48.046;7.804;2023-05-07T14:11:42;21.00;94.80
19654;DHT22;9975;48.046;7.804;2023-05-07T14:14:08;20.90;95.20
19654;DHT22;9975;48.046;7.804;2023-05-07T14:16:36;21.30;94.60
19654;DHT22;9975;48.046;7.804;2023-05-07T14:19:02;21.60;93.80
19654;DHT22;9975;48.046;7.804;2023-05-07T14:21:28;21.70;93.60
19654;DHT22;9975;48.046;7.804;2023-05-07T14:23:53;21.80;93.20
19654;DHT22;9975;48.046;7.804;2023-05-07T14:26:19;22.20;93.50
19654;DHT22;9975;48.046;7.804;2023-05-07T14:28:46;22.20;92.20
19654;DHT22;9975;48.046;7.804;2023-05-07T14:31:14;22.40;92.00
19654;DHT22;9975;48.046;7.804;2023-05-07T14:33:40;22.80;91.50
19654;DHT22;9975;48.046;7.804;2023-05-07T14:36:06;23.10;91.30
19654;DHT22;9975;48.046;7.804;2023-05-07T14:38:32;23.00;90.80
19654;DHT22;9975;48.046;7.804;2023-05-07T14:40:58;23.30;88.80
19654;DHT22;9975;48.046;7.804;2023-05-07T14:43:24;23.10;87.00
19654;DHT22;9975;48.046;7.804;2023-05-07T14:45:49;23.20;87.40
19654;DHT22;9975;48.046;7.804;2023-05-07T14:48:15;22.90;90.00
19654;DHT22;9975;48.046;7.804;2023-05-07T14:50:42;22.70;89.40
19654;DHT22;9975;48.046;7.804;2023-05-07T14:53:07;22.60;90.00
19654;DHT22;9975;48.046;7.804;2023-05-07T14:55:34;22.80;89.40
19654;DHT22;9975;48.046;7.804;2023-05-07T14:58:00;22.70;89.30
19654;DHT22;9975;48.046;7.804;2023-05-07T15:00:25;22.90;90.00
19654;DHT22;9975;48.046;7.804;2023-05-07T15:02:51;23.10;90.40
19654;DHT22;9975;48.046;7.804;2023-05-07T15:05:17;23.50;89.70
19654;DHT22;9975;48.046;7.804;2023-05-07T15:07:44;23.60;88.40
19654;DHT22;9975;48.046;7.804;2023-05-07T15:10:10;23.50;87.10
19654;DHT22;9975;48.046;7.804;2023-05-07T15:12:36;23.50;88.10
19654;DHT22;9975;48.046;7.804;2023-05-07T15:15:01;23.90;89.20
19654;DHT22;9975;48.046;7.804;2023-05-07T15:17:27;24.10;88.70
19654;DHT22;9975;48.046;7.804;2023-05-07T15:19:53;23.50;87.40
19654;DHT22;9975;48.046;7.804;2023-05-07T15:22:19;23.10;89.70
19654;DHT22;9975;48.046;7.804;2023-05-07T15:24:46;22.90;90.30
19654;DHT22;9975;48.046;7.804;2023-05-07T15:27:12;22.90;90.60
19654;DHT22;9975;48.046;7.804;2023-05-07T15:29:37;22.90;89.50
19654;DHT22;9975;48.046;7.804;2023-05-07T15:32:03;22.90;88.90
19654;DHT22;9975;48.046;7.804;2023-05-07T15:34:29;23.00;88.60
19654;DHT22;9975;48.046;7.804;2023-05-07T15:36:56;23.20;87.20
19654;DHT22;9975;48.046;7.804;2023-05-07T15:39:22;22.90;87.40
19654;DHT22;9975;48.046;7.804;2023-05-07T15:41:48;23.00;87.70
19654;DHT22;9975;48.046;7.804;2023-05-07T15:44:13;23.20;86.20
19654;DHT22;9975;48.046;7.804;2023-05-07T15:46:39;23.30;86.80
19654;DHT22;9975;48.046;7.804;2023-05-07T15:49:05;23.10;87.10
19654;DHT22;9975;48.046;7.804;2023-05-07T15:51:30;23.10;88.20
19654;DHT22;9975;48.046;7.804;2023-05-07T15:53:56;23.20;88.00
19654;DHT22;9975;48.046;7.804;2023-05-07T15:56:22;23.20;89.40
19654;DHT22;9975;48.046;7.804;2023-05-07T15:58:47;22.80;89.80
19654;DHT22;9975;48.046;7.804;2023-05-07T16:01:13;22.90;90.40
19654;DHT22;9975;48.046;7.804;2023-05-07T16:03:39;22.90;90.00
19654;DHT22;9975;48.046;7.804;2023-05-07T16:06:06;22.90;89.60
19654;DHT22;9975;48.046;7.804;2023-05-07T16:08:31;23.00;89.80
19654;DHT22;9975;48.046;7.804;2023-05-07T16:10:58;22.80;90.10
19654;DHT22;9975;48.046;7.804;2023-05-07T16:13:24;22.90;90.00
19654;DHT22;9975;48.046;7.804;2023-05-07T16:15:55;22.90;89.50
19654;DHT22;9975;48.046;7.804;2023-05-07T16:18:21;22.80;88.90
19654;DHT22;9975;48.046;7.804;2023-05-07T16:20:47;22.90;89.20
19654;DHT22;9975;48.046;7.804;2023-05-07T16:23:13;22.90;88.90
19654;DHT22;9975;48.046;7.804;2023-05-07T16:25:38;22.90;88.50
19654;DHT22;9975;48.046;7.804;2023-05-07T16:28:04;22.60;88.00
19654;DHT22;9975;48.046;7.804;2023-05-07T16:30:30;22.60;89.50
19654;DHT22;9975;48.046;7.804;2023-05-07T16:32:56;22.70;89.50
19654;DHT22;9975;48.046;7.804;2023-05-07T16:35:21;22.60;88.50
19654;DHT22;9975;48.046;7.804;2023-05-07T16:37:47;22.70;88.50
19654;DHT22;9975;48.046;7.804;2023-05-07T16:40:12;22.60;88.60
19654;DHT22;9975;48.046;7.804;2023-05-07T16:42:38;22.60;88.50
19654;DHT22;9975;48.046;7.804;2023-05-07T16:45:04;22.40;89.20
19654;DHT22;9975;48.046;7.804;2023-05-07T16:47:30;22.40;90.00
19654;DHT22;9975;48.046;7.804;2023-05-07T16:49:56;22.30;90.30
19654;DHT22;9975;48.046;7.804;2023-05-07T16:52:23;22.20;90.10
19654;DHT22;9975;48.046;7.804;2023-05-07T16:54:48;22.20;90.00
19654;DHT22;9975;48.046;7.804;2023-05-07T16:57:14;22.20;90.40
19654;DHT22;9975;48.046;7.804;2023-05-07T16:59:40;22.20;89.30
19654;DHT22;9975;48.046;7.804;2023-05-07T17:02:06;22.10;88.50
19654;DHT22;9975;48.046;7.804;2023-05-07T17:04:31;22.00;88.60
19654;DHT22;9975;48.046;7.804;2023-05-07T17:06:57;22.00;88.60
19654;DHT22;9975;48.046;7.804;2023-05-07T17:09:23;22.10;87.60
19654;DHT22;9975;48.046;7.804;2023-05-07T17:11:49;22.10;86.60
19654;DHT22;9975;48.046;7.804;2023-05-07T17:14:15;22.10;87.90
19654;DHT22;9975;48.046;7.804;2023-05-07T17:16:40;22.00;88.10
19654;DHT22;9975;48.046;7.804;2023-05-07T17:19:06;22.00;88.10
19654;DHT22;9975;48.046;7.804;2023-05-07T17:21:32;21.80;87.70
19654;DHT22;9975;48.046;7.804;2023-05-07T17:23:58;21.80;87.90
19654;DHT22;9975;48.046;7.804;2023-05-07T17:26:23;21.80;86.30
19654;DHT22;9975;48.046;7.804;2023-05-07T17:28:49;21.70;86.30
19654;DHT22;9975;48.046;7.804;2023-05-07T17:31:14;21.50;87.10
19654;DHT22;9975;48.046;7.804;2023-05-07T17:33:40;21.40;87.50
19654;DHT22;9975;48.046;7.804;2023-05-07T17:36:06;21.40;87.50
19654;DHT22;9975;48.046;7.804;2023-05-07T17:38:33;21.30;85.90
19654;DHT22;9975;48.046;7.804;2023-05-07T17:40:59;21.20;86.00
19654;DHT22;9975;48.046;7.804;2023-05-07T17:43:25;21.20;86.00
19654;DHT22;9975;48.046;7.804;2023-05-07T17:45:51;21.00;85.90
19654;DHT22;9975;48.046;7.804;2023-05-07T17:48:16;21.00;85.40
19654;DHT22;9975;48.046;7.804;2023-05-07T17:50:42;21.00;85.80
19654;DHT22;9975;48.046;7.804;2023-05-07T17:53:09;20.90;86.00
19654;DHT22;9975;48.046;7.804;2023-05-07T17:55:35;20.80;85.30